createdAt,value
2022-08-10T00:00:01.056Z,10.73
2022-08-10T00:02:51.274Z,11.05
2022-08-10T00:05:43.562Z,11.77
2022-08-10T00:08:40.756Z,12.20
2022-08-10T00:11:28.868Z,11.55
2022-08-10T00:14:17.049Z,10.95
2022-08-10T00:17:05.483Z,11.93
2022-08-10T00:20:02.581Z,10.98
2022-08-10T00:22:57.379Z,10.57
2022-08-10T00:25:46.298Z,9.93
2022-08-10T00:28:34.591Z,9.65
2022-08-10T00:31:22.679Z,8.48
2022-08-10T00:34:10.704Z,8.68
2022-08-10T00:37:00.658Z,8.25
2022-08-10T00:39:48.723Z,8.43
2022-08-10T00:42:36.776Z,7.45
2022-08-10T00:45:24.778Z,7.80
2022-08-10T00:48:12.812Z,7.80
2022-08-10T00:51:01.574Z,7.78
2022-08-10T00:53:51.107Z,7.72
2022-08-10T00:57:17.363Z,7.68
2022-08-10T00:59:59.185Z,7.90
2022-08-10T01:02:48.512Z,8.00
2022-08-10T01:05:51.222Z,7.97
2022-08-10T01:08:52.458Z,7.35
2022-08-10T01:12:39.933Z,7.70
2022-08-10T01:15:02.733Z,7.47
2022-08-10T01:17:55.203Z,7.47
2022-08-10T01:20:59.499Z,7.72
2022-08-10T01:24:09.886Z,7.43
2022-08-10T01:27:19.730Z,7.45
2022-08-10T01:30:18.259Z,7.45
2022-08-10T01:33:10.561Z,7.80
2022-08-10T01:36:04.563Z,7.82
2022-08-10T01:38:53.973Z,7.85
2022-08-10T01:41:46.773Z,8.02
2022-08-10T01:44:37.224Z,8.00
2022-08-10T01:47:51.427Z,8.02
2022-08-10T01:50:59.502Z,7.43
2022-08-10T01:53:54.095Z,7.50
2022-08-10T01:56:46.781Z,8.23
2022-08-10T01:59:37.586Z,7.55
2022-08-10T02:02:30.691Z,8.38
2022-08-10T02:05:19.776Z,8.05
2022-08-10T02:08:12.619Z,7.82
2022-08-10T02:11:02.708Z,8.13
2022-08-10T02:13:52.268Z,7.80
2022-08-10T02:16:43.553Z,8.25
2022-08-10T02:19:36.261Z,9.05
2022-08-10T02:22:36.697Z,8.88
2022-08-10T02:25:41.261Z,8.70
2022-08-10T02:28:34.789Z,8.25
2022-08-10T02:31:25.202Z,9.15
2022-08-10T02:34:16.552Z,9.68
2022-08-10T02:37:11.031Z,10.10
2022-08-10T02:40:01.485Z,10.27
2022-08-10T02:45:27.550Z,10.25
2022-08-10T02:46:08.076Z,10.60
2022-08-10T02:49:02.091Z,11.10
2022-08-10T02:52:08.040Z,11.32
2022-08-10T02:55:17.088Z,12.20
2022-08-10T02:58:17.404Z,12.48
2022-08-10T03:01:14.171Z,13.52
2022-08-10T03:04:07.494Z,13.73
2022-08-10T03:06:59.165Z,13.55
2022-08-10T03:09:49.347Z,16.02
2022-08-10T03:12:40.487Z,15.10
2022-08-10T03:15:30.681Z,15.80
2022-08-10T03:18:22.512Z,16.70
2022-08-10T03:21:12.004Z,16.05
2022-08-10T03:24:02.686Z,15.73
2022-08-10T03:27:12.863Z,16.75
2022-08-10T03:30:29.512Z,17.55
2022-08-10T03:33:11.309Z,17.50
2022-08-10T03:36:42.357Z,17.83
2022-08-10T03:39:08.314Z,18.02
2022-08-10T03:42:00.876Z,17.98
2022-08-10T03:44:50.949Z,20.20
2022-08-10T03:47:43.644Z,20.98
2022-08-10T03:50:51.489Z,21.23
2022-08-10T03:54:04.246Z,21.52
2022-08-10T03:56:49.408Z,21.63
2022-08-10T03:59:38.376Z,21.30
2022-08-10T04:02:52.871Z,23.10
2022-08-10T04:05:38.589Z,24.08
2022-08-10T04:08:27.169Z,25.65
2022-08-10T04:11:15.244Z,28.13
2022-08-10T04:14:03.556Z,28.52
2022-08-10T04:16:51.642Z,30.08
2022-08-10T04:19:45.759Z,31.95
2022-08-10T04:22:37.584Z,32.13
2022-08-10T04:25:27.278Z,31.50
2022-08-10T04:28:15.847Z,34.15
2022-08-10T04:31:05.520Z,33.88
2022-08-10T04:33:55.408Z,36.38
2022-08-10T04:36:45.629Z,34.80
2022-08-10T04:39:35.431Z,35.00
2022-08-10T04:42:24.105Z,35.75
2022-08-10T04:45:14.241Z,35.28
2022-08-10T04:48:03.272Z,36.45
2022-08-10T04:50:51.782Z,35.92
2022-08-10T04:54:04.349Z,36.22
2022-08-10T04:56:49.637Z,35.15
2022-08-10T04:59:37.617Z,35.05
2022-08-10T05:02:31.541Z,34.83
2022-08-10T05:05:20.203Z,34.00
2022-08-10T05:08:08.219Z,36.28
2022-08-10T05:10:56.235Z,35.63
2022-08-10T05:13:45.531Z,36.60
2022-08-10T05:16:35.017Z,33.75
2022-08-10T05:20:03.409Z,36.58
2022-08-10T05:22:31.029Z,38.17
2022-08-10T05:25:20.503Z,39.13
2022-08-10T05:28:08.547Z,38.17
2022-08-10T05:30:58.035Z,37.80
2022-08-10T05:33:46.061Z,41.50
2022-08-10T05:36:34.896Z,39.83
2022-08-10T05:39:28.790Z,39.70
2022-08-10T05:42:21.590Z,35.75
2022-08-10T05:45:21.121Z,39.05
2022-08-10T05:48:56.192Z,37.58
2022-08-10T05:51:19.283Z,33.58
2022-08-10T05:54:14.929Z,36.88
2022-08-10T05:57:03.200Z,34.95
2022-08-10T06:00:11.040Z,33.22
2022-08-10T06:03:11.805Z,29.13
2022-08-10T06:06:01.781Z,29.52
2022-08-10T06:08:51.334Z,28.05
2022-08-10T06:12:24.048Z,25.58
2022-08-10T06:15:05.905Z,26.20
2022-08-10T06:18:01.931Z,23.88
2022-08-10T06:20:53.009Z,23.60
2022-08-10T06:23:42.332Z,21.25
2022-08-10T06:26:30.491Z,19.27
2022-08-10T06:29:20.894Z,18.33
2022-08-10T06:32:10.753Z,18.17
2022-08-10T06:35:01.508Z,16.98
2022-08-10T06:37:52.639Z,14.50
2022-08-10T06:40:44.112Z,14.45
2022-08-10T06:43:34.626Z,14.82
2022-08-10T06:46:24.285Z,13.90
2022-08-10T06:49:14.232Z,15.38
2022-08-10T06:52:03.765Z,14.30
2022-08-10T06:54:56.703Z,14.35
2022-08-10T06:57:45.975Z,13.18
2022-08-10T07:00:51.242Z,12.63
2022-08-10T07:03:45.211Z,11.80
2022-08-10T07:06:35.901Z,11.95
2022-08-10T07:09:24.808Z,9.65
2022-08-10T07:12:15.896Z,8.55
2022-08-10T07:15:04.553Z,8.88
2022-08-10T07:17:54.213Z,7.97
2022-08-10T07:20:43.747Z,8.90
2022-08-10T07:23:58.914Z,9.07
2022-08-10T07:26:47.552Z,7.50
2022-08-10T07:29:54.566Z,6.32
2022-08-10T07:32:45.266Z,5.60
2022-08-10T07:35:42.418Z,5.88
2022-08-10T07:38:34.217Z,6.53
2022-08-10T07:41:24.619Z,6.43
2022-08-10T07:44:13.415Z,6.68
2022-08-10T07:47:05.194Z,6.43
2022-08-10T07:49:56.267Z,6.50
2022-08-10T07:52:46.773Z,6.28
2022-08-10T07:56:04.830Z,6.50
2022-08-10T07:58:51.902Z,6.53
2022-08-10T08:01:45.295Z,6.70
2022-08-10T08:04:35.872Z,6.05
2022-08-10T08:07:24.423Z,5.32
2022-08-10T08:10:13.941Z,5.30
2022-08-10T08:13:03.967Z,5.03
2022-08-10T08:16:21.325Z,5.40
2022-08-10T08:24:05.429Z,5.20
2022-08-10T08:25:23.418Z,5.55
2022-08-10T08:28:12.343Z,5.15
2022-08-10T08:31:00.864Z,5.15
2022-08-10T08:33:50.753Z,5.22
2022-08-10T08:36:41.290Z,5.65
2022-08-10T08:39:33.232Z,5.50
2022-08-10T08:42:49.154Z,5.50
2022-08-10T08:46:01.901Z,5.22
2022-08-10T08:49:09.197Z,5.63
2022-08-10T08:52:18.310Z,5.40
2022-08-10T08:55:50.229Z,5.60
2022-08-10T08:59:02.459Z,5.80
2022-08-10T09:02:01.446Z,5.80
2022-08-10T09:05:04.677Z,5.38
2022-08-10T09:08:07.440Z,5.82
2022-08-10T09:11:01.046Z,5.88
2022-08-10T09:13:55.469Z,5.57
2022-08-10T09:16:54.521Z,6.35
2022-08-10T09:19:48.142Z,6.25
2022-08-10T09:22:57.285Z,6.10
2022-08-10T09:25:53.024Z,6.22
2022-08-10T09:28:44.526Z,6.68
2022-08-10T09:32:54.342Z,6.70
2022-08-10T09:36:28.154Z,7.03
2022-08-10T09:38:32.695Z,6.95
2022-08-10T09:41:30.366Z,7.50
2022-08-10T09:44:30.305Z,6.80
2022-08-10T09:48:02.425Z,7.40
2022-08-10T09:51:41.793Z,7.30
2022-08-10T09:54:08.208Z,7.70
2022-08-10T09:57:43.497Z,8.05
2022-08-10T10:00:22.489Z,8.50
2022-08-10T10:03:20.587Z,8.27
2022-08-10T10:06:20.283Z,8.13
2022-08-10T10:09:13.014Z,8.63
2022-08-10T10:12:12.977Z,8.90
2022-08-10T10:15:24.912Z,8.48
2022-08-10T10:18:31.140Z,8.90
2022-08-10T10:21:54.534Z,9.13
2022-08-10T10:24:42.274Z,9.18
2022-08-10T10:27:48.107Z,8.82
2022-08-10T10:30:45.821Z,9.27
2022-08-10T10:33:54.183Z,9.07
2022-08-10T10:36:44.418Z,8.93
2022-08-10T10:39:33.406Z,9.13
2022-08-10T10:42:44.765Z,9.70
2022-08-10T10:45:50.214Z,9.63
2022-08-10T10:48:48.701Z,9.43
2022-08-10T10:51:45.719Z,9.57
2022-08-10T10:54:42.658Z,9.60
2022-08-10T10:57:58.958Z,10.00
2022-08-10T11:00:57.941Z,9.75
2022-08-10T11:03:58.638Z,9.48
2022-08-10T11:06:58.175Z,9.75
2022-08-10T11:10:08.652Z,9.80
2022-08-10T11:14:25.831Z,9.88
2022-08-10T11:16:28.903Z,10.00
2022-08-10T11:19:24.673Z,9.75
2022-08-10T11:22:19.516Z,9.88
2022-08-10T11:25:13.915Z,8.73
2022-08-10T11:28:09.419Z,9.30
2022-08-10T11:31:02.786Z,9.30
2022-08-10T11:34:46.518Z,9.65
2022-08-10T11:37:17.105Z,8.82
2022-08-10T11:40:19.012Z,9.20
2022-08-10T11:43:12.161Z,9.27
2022-08-10T11:46:16.501Z,8.68
2022-08-10T11:49:12.665Z,8.57
2022-08-10T11:52:06.334Z,8.45
2022-08-10T11:54:58.680Z,8.38
2022-08-10T11:57:53.445Z,8.30
2022-08-10T12:00:42.132Z,8.85
2022-08-10T12:03:35.000Z,8.68
2022-08-10T12:06:53.609Z,8.15
2022-08-10T12:10:05.795Z,7.85
2022-08-10T12:12:51.709Z,8.23
2022-08-10T12:15:44.551Z,7.75
2022-08-10T12:18:36.508Z,7.80
2022-08-10T12:21:28.719Z,7.95
2022-08-10T12:24:24.277Z,8.40
2022-08-10T12:27:17.848Z,7.80
2022-08-10T12:30:09.099Z,7.97
2022-08-10T12:33:03.220Z,7.65
2022-08-10T12:36:18.463Z,7.32
2022-08-10T12:39:14.892Z,6.88
2022-08-10T12:42:10.240Z,7.30
2022-08-10T12:45:04.615Z,6.60
2022-08-10T12:48:01.139Z,6.90
2022-08-10T12:50:56.798Z,6.75
2022-08-10T12:53:53.983Z,6.88
2022-08-10T12:56:47.018Z,6.15
2022-08-10T12:59:43.110Z,6.55
2022-08-10T13:02:34.829Z,6.45
2022-08-10T13:05:27.986Z,6.00
2022-08-10T13:08:33.950Z,5.80
2022-08-10T13:12:36.104Z,5.75
2022-08-10T13:14:38.397Z,5.60
2022-08-10T13:17:39.121Z,5.68
2022-08-10T13:20:32.010Z,5.78
2022-08-10T13:23:23.544Z,5.57
2022-08-10T13:26:15.611Z,5.10
2022-08-10T13:29:12.902Z,5.15
2022-08-10T13:32:09.035Z,5.07
2022-08-10T13:35:03.189Z,4.93
2022-08-10T13:37:55.604Z,5.30
2022-08-10T13:40:49.738Z,5.05
2022-08-10T13:43:38.885Z,5.30
2022-08-10T13:46:27.457Z,4.72
2022-08-10T13:49:16.368Z,5.13
2022-08-10T13:52:05.012Z,5.10
2022-08-10T13:54:56.477Z,6.80
2022-08-10T13:57:49.444Z,5.38
2022-08-10T14:00:42.525Z,5.05
2022-08-10T14:03:37.522Z,5.00
2022-08-10T14:06:29.579Z,5.53
2022-08-10T14:09:18.877Z,5.15
2022-08-10T14:12:11.585Z,5.45
2022-08-10T14:15:01.792Z,5.43
2022-08-10T14:17:56.047Z,4.90
2022-08-10T14:20:45.595Z,5.40
2022-08-10T14:23:35.252Z,4.90
2022-08-10T14:26:26.912Z,5.07
2022-08-10T14:29:19.718Z,5.13
2022-08-10T14:32:10.178Z,5.15
2022-08-10T14:36:18.772Z,5.20
2022-08-10T14:38:13.330Z,5.13
2022-08-10T14:41:03.317Z,5.07
2022-08-10T14:43:57.053Z,5.03
2022-08-10T14:46:51.392Z,4.80
2022-08-10T14:49:58.196Z,5.03
2022-08-10T14:52:48.224Z,5.80
2022-08-10T14:55:58.324Z,4.90
2022-08-10T14:59:05.258Z,4.97
2022-08-10T15:02:40.288Z,4.80
2022-08-10T15:05:12.509Z,4.63
2022-08-10T15:08:00.980Z,4.80
2022-08-10T15:10:51.094Z,4.88
2022-08-10T15:13:44.684Z,4.82
2022-08-10T15:16:54.576Z,4.40
2022-08-10T15:20:03.460Z,4.70
2022-08-10T15:23:02.455Z,4.97
2022-08-10T15:25:56.470Z,5.50
2022-08-10T15:29:24.373Z,4.82
2022-08-10T15:32:14.066Z,6.20
2022-08-10T15:35:25.695Z,4.55
2022-08-10T15:38:18.239Z,4.53
2022-08-10T15:41:11.070Z,5.07
2022-08-10T15:43:59.460Z,4.60
2022-08-10T15:46:52.835Z,4.85
2022-08-10T15:49:48.731Z,5.07
2022-08-10T15:53:01.961Z,4.90
2022-08-10T15:55:52.948Z,4.90
2022-08-10T15:58:48.645Z,5.28
2022-08-10T16:02:04.064Z,5.30
2022-08-10T16:04:58.201Z,4.88
2022-08-10T16:07:52.757Z,4.80
2022-08-10T16:10:53.340Z,4.90
2022-08-10T16:13:59.707Z,4.78
2022-08-10T16:16:55.053Z,5.22
2022-08-10T16:19:49.101Z,4.93
2022-08-10T16:22:37.730Z,4.97
2022-08-10T16:25:51.388Z,4.72
2022-08-10T16:28:43.501Z,4.82
2022-08-10T16:31:33.592Z,5.00
2022-08-10T16:34:23.435Z,4.90
2022-08-10T16:37:15.056Z,5.22
2022-08-10T16:40:05.417Z,5.07
2022-08-10T16:42:56.282Z,5.07
2022-08-10T16:45:48.724Z,5.07
2022-08-10T16:48:49.750Z,4.70
2022-08-10T16:51:40.120Z,4.78
2022-08-10T16:54:29.634Z,4.40
2022-08-10T16:57:19.339Z,4.75
2022-08-10T17:00:10.680Z,4.40
2022-08-10T17:03:22.805Z,4.70
2022-08-10T17:06:19.221Z,4.97
2022-08-10T17:09:14.725Z,4.70
2022-08-10T17:12:10.460Z,5.00
2022-08-10T17:15:09.140Z,4.60
2022-08-10T17:18:03.587Z,4.85
2022-08-10T17:20:52.232Z,4.70
2022-08-10T17:23:46.779Z,4.75
2022-08-10T17:26:37.375Z,4.47
2022-08-10T17:29:57.139Z,4.70
2022-08-10T17:32:44.243Z,4.95
2022-08-10T17:35:37.081Z,4.30
2022-08-10T17:38:27.223Z,4.70
2022-08-10T17:41:17.777Z,5.05
2022-08-10T17:44:08.999Z,5.25
2022-08-10T17:46:57.933Z,5.55
2022-08-10T17:49:47.994Z,4.95
2022-08-10T17:52:37.542Z,6.70
2022-08-10T17:55:31.835Z,6.28
2022-08-10T17:58:24.952Z,6.40
2022-08-10T18:01:41.000Z,6.93
2022-08-10T18:04:34.204Z,7.07
2022-08-10T18:07:35.619Z,7.07
2022-08-10T18:10:26.131Z,7.57
2022-08-10T18:13:18.519Z,7.60
2022-08-10T18:16:07.969Z,7.40
2022-08-10T18:19:00.749Z,8.38
2022-08-10T18:21:50.582Z,8.80
2022-08-10T18:24:40.274Z,10.02
2022-08-10T18:28:00.582Z,10.73
2022-08-10T18:30:29.744Z,10.27
2022-08-10T18:33:27.733Z,11.02
2022-08-10T18:36:18.472Z,10.65
2022-08-10T18:39:07.917Z,10.73
2022-08-10T18:42:05.552Z,10.23
2022-08-10T18:45:01.959Z,9.45
2022-08-10T18:47:59.287Z,9.77
2022-08-10T18:50:50.839Z,9.40
2022-08-10T18:53:48.068Z,9.40
2022-08-10T18:56:51.089Z,8.32
2022-08-10T19:00:07.811Z,7.65
2022-08-10T19:03:19.004Z,7.70
2022-08-10T19:06:20.748Z,7.40
2022-08-10T19:09:45.725Z,7.88
2022-08-10T19:12:45.592Z,8.10
2022-08-10T19:15:40.419Z,8.00
2022-08-10T19:18:38.385Z,8.20
2022-08-10T19:21:32.087Z,8.93
2022-08-10T19:24:26.869Z,8.73
2022-08-10T19:27:29.285Z,8.43
2022-08-10T19:30:19.586Z,9.20
2022-08-10T19:33:22.968Z,9.00
2022-08-10T19:36:18.468Z,8.13
2022-08-10T19:39:17.888Z,8.45
2022-08-10T19:42:12.147Z,8.00
2022-08-10T19:45:12.062Z,7.78
2022-08-10T19:48:27.323Z,7.53
2022-08-10T19:51:20.955Z,7.05
2022-08-10T19:54:14.815Z,6.97
2022-08-10T19:57:10.448Z,6.90
2022-08-10T20:00:19.196Z,7.32
2022-08-10T20:03:17.847Z,8.48
2022-08-10T20:06:19.823Z,9.95
2022-08-10T20:09:15.830Z,11.95
2022-08-10T20:12:07.748Z,13.02
2022-08-10T20:15:02.878Z,12.63
2022-08-10T20:17:56.627Z,14.48
2022-08-10T20:20:50.168Z,13.93
2022-08-10T20:23:55.200Z,12.43
2022-08-10T20:26:52.394Z,12.77
2022-08-10T20:29:59.027Z,13.27
2022-08-10T20:32:52.073Z,13.00
2022-08-10T20:35:51.075Z,13.18
2022-08-10T20:38:47.016Z,13.05
2022-08-10T20:41:53.470Z,14.27
2022-08-10T20:44:50.991Z,13.95
2022-08-10T20:47:56.658Z,14.40
2022-08-10T20:50:48.878Z,15.18
2022-08-10T20:53:45.333Z,15.98
2022-08-10T20:56:38.589Z,16.35
2022-08-10T21:00:03.831Z,16.65
2022-08-10T21:03:20.947Z,17.45
2022-08-10T21:06:42.134Z,16.80
2022-08-10T21:09:49.891Z,16.42
2022-08-10T21:12:56.413Z,16.17
2022-08-10T21:15:56.126Z,16.92
2022-08-10T21:19:01.859Z,17.08
2022-08-10T21:22:04.401Z,17.25
2022-08-10T21:25:01.342Z,16.95
2022-08-10T21:28:13.015Z,17.27
2022-08-10T21:31:16.070Z,16.55
2022-08-10T21:34:19.056Z,15.98
2022-08-10T21:37:12.103Z,17.58
2022-08-10T21:40:35.486Z,16.27
2022-08-10T21:43:57.658Z,16.23
2022-08-10T21:47:31.067Z,15.52
2022-08-10T21:50:45.265Z,16.85
2022-08-10T21:53:57.001Z,17.65
2022-08-10T21:57:09.775Z,18.55
2022-08-10T22:00:22.403Z,17.83
2022-08-10T22:03:39.616Z,17.55
2022-08-10T22:06:52.197Z,17.15
2022-08-10T22:10:03.923Z,17.85
2022-08-10T22:13:12.492Z,18.15
2022-08-10T22:16:20.752Z,19.63
2022-08-10T22:19:30.525Z,19.50
2022-08-10T22:22:46.510Z,19.33
2022-08-10T22:26:15.323Z,17.65
2022-08-10T22:29:42.172Z,18.83
2022-08-10T22:32:58.647Z,17.73
2022-08-10T22:36:35.019Z,17.40
2022-08-10T22:40:12.582Z,18.52
2022-08-10T22:43:35.877Z,17.90
2022-08-10T22:46:46.436Z,19.13
2022-08-10T22:49:34.193Z,22.30
2022-08-10T22:52:26.886Z,22.17
2022-08-10T22:55:36.352Z,22.88
2022-08-10T22:58:39.665Z,20.67
2022-08-10T23:01:42.088Z,19.92
2022-08-10T23:04:56.393Z,20.58
2022-08-10T23:07:50.168Z,22.73
2022-08-10T23:10:42.268Z,23.08
2022-08-10T23:13:36.179Z,24.98
2022-08-10T23:16:47.179Z,25.60
2022-08-10T23:19:41.531Z,22.80
2022-08-10T23:22:35.925Z,22.35
2022-08-10T23:25:30.178Z,23.55
2022-08-10T23:28:38.556Z,21.30
2022-08-10T23:32:00.847Z,17.80
2022-08-10T23:34:45.251Z,18.85
2022-08-10T23:37:55.651Z,17.42
2022-08-10T23:40:50.691Z,17.85
2022-08-10T23:44:03.311Z,17.17
2022-08-10T23:46:53.526Z,16.85
2022-08-10T23:49:43.113Z,16.88
2022-08-10T23:52:34.553Z,17.33
2022-08-10T23:55:25.598Z,15.98
2022-08-10T23:58:32.902Z,17.20
